NORTHERN QUEENS  -  Air Quality Alert Air Quality Alert        SOUTHERN QUEENS  -  Air Quality Alert Air Quality Alert      

Active alerts

Northern Queens
  Details for Northern Queens Air Quality Alert
Southern Queens
  Details for Southern Queens Air Quality Alert


WXM80 ListenWXM80 Stop

You find our weather info also at:

UK Metoffice

WeatherCloud

Weather Underground

Northeastern Weather Network

AWEKAS

Citizen Weather Observer Program (CWOP)

HAMweather, WeatherForYou, PWS Weather


Weather Underground History page Text

Daily Summary for August 15, 2017 Units:  Metric    English   Both
« Previous Day
Next Day »
Daily Weekly Monthly Yearly Custom
  High: Low: Average:
Temperature: 23.6 °C 20 °C 22.1 °C
Dew Point: 22.1 °C 19 °C 20.8 °C
Humidity: 97 % 88 % 93 %
Wind Speed: 3.2 km/h 0 km/h 0.2 km/h
Wind Gust: 12.9 km/h - -
Wind:- - SSE
Pressure: 1012.8 hPa 1010 hPa -
Precipitation: 5.84 mm    
Historical Graphs
 
 
Tabular Data for August 15, 2017
Time Temperature Dew Point Pressure Wind Wind Speed Wind Gust Humidity Rainfall Rate (Hourly)
00:04 21.7 °C 19.9 °C 1012.4 hPa Calm     90 % 0 mm
00:09 21.7 °C 19.9 °C 1012.4 hPa Calm     90 % 0 mm
00:14 21.7 °C 20.1 °C 1012.4 hPa Calm     91 % 0 mm
00:19 21.6 °C 20.1 °C 1012.4 hPa Calm     91 % 0 mm
00:24 21.6 °C 20.1 °C 1012.4 hPa Calm     91 % 0 mm
00:29 21.6 °C 20.1 °C 1012.4 hPa Calm     91 % 0 mm
00:34 21.6 °C 20.1 °C 1012.4 hPa Calm     91 % 0 mm
00:39 21.6 °C 20.3 °C 1012.4 hPa Calm     92 % 0 mm
00:44 21.7 °C 20.3 °C 1012.4 hPa Calm     92 % 0 mm
00:49 21.7 °C 20.3 °C 1012.4 hPa Calm     92 % 0 mm
00:55 21.7 °C 20.6 °C 1012.4 hPa Calm     93 % 0 mm
01:00 21.7 °C 20.6 °C 1012.4 hPa Calm   1.9 km/h 93 % 0 mm
01:05 21.7 °C 20.6 °C 1012.4 hPa Calm   1.9 km/h 93 % 0 mm
01:10 21.8 °C 20.6 °C 1012.4 hPa Calm     93 % 0 mm
01:15 21.8 °C 20.6 °C 1012.1 hPa Calm     93 % 0 mm
01:20 21.8 °C 20.5 °C 1012.1 hPa Calm     92 % 0 mm
01:25 21.8 °C 20.7 °C 1012.1 hPa Calm   1.9 km/h 93 % 0 mm
01:30 21.9 °C 20.6 °C 1012.1 hPa Calm     92 % 0 mm
01:35 21.9 °C 20.6 °C 1012.1 hPa Calm     92 % 0 mm
01:40 21.9 °C 20.6 °C 1012.1 hPa Calm   1.9 km/h 92 % 0 mm
01:45 22 °C 20.7 °C 1012.1 hPa Calm     92 % 0 mm
01:50 22 °C 20.7 °C 1012.1 hPa Calm     92 % 0 mm
01:55 22.1 °C 20.7 °C 1012.1 hPa Calm     92 % 0 mm
02:00 22.1 °C 20.7 °C 1012.1 hPa Calm     92 % 0 mm
02:05 22.1 °C 20.7 °C 1012.1 hPa Calm     92 % 0 mm
02:10 22.1 °C 20.7 °C 1012.1 hPa Calm     92 % 0 mm
02:15 22.1 °C 20.7 °C 1012.1 hPa Calm     92 % 0 mm
02:20 22.1 °C 20.7 °C 1012.1 hPa Calm     92 % 0 mm
02:25 22.1 °C 20.7 °C 1012.1 hPa Calm     92 % 0 mm
02:30 22.1 °C 20.7 °C 1012.1 hPa Calm     92 % 0 mm
02:35 22.1 °C 20.7 °C 1012.1 hPa Calm     92 % 0 mm
02:40 22.1 °C 20.7 °C 1012.4 hPa Calm     92 % 0 mm
02:45 22.1 °C 20.7 °C 1012.4 hPa SE 0.2 km/h 1.6 km/h 92 % 0 mm
02:50 22.1 °C 20.7 °C 1012.4 hPa WSW 0.3 km/h 5.6 km/h 92 % 0 mm
02:55 22.1 °C 20.7 °C 1012.4 hPa Calm   1.6 km/h 92 % 0 mm
03:00 22.1 °C 20.7 °C 1012.4 hPa WSW 0.5 km/h 3.2 km/h 92 % 0 mm
03:05 22.1 °C 20.5 °C 1012.4 hPa WSW 0.3 km/h 1.9 km/h 91 % 0.25 mm
03:10 22 °C 20.4 °C 1012.4 hPa Calm   1.9 km/h 91 % 0.25 mm
03:15 21.9 °C 20.4 °C 1012.4 hPa Calm     91 % 0.51 mm
03:20 21.9 °C 20.3 °C 1012.4 hPa Calm     91 % 0.51 mm
03:25 21.8 °C 20.3 °C 1012.4 hPa Calm     91 % 0.76 mm
03:30 21.8 °C 20.5 °C 1012.4 hPa WSW 0.2 km/h 1.9 km/h 92 % 1.02 mm
03:35 21.8 °C 20.2 °C 1012.4 hPa Calm     91 % 1.52 mm
03:40 21.7 °C 20.1 °C 1012.4 hPa Calm   1.9 km/h 91 % 2.03 mm
03:46 21.6 °C 20.3 °C 1012.4 hPa Calm   3.2 km/h 92 % 0 mm
03:51 21.6 °C 20.2 °C 1012.4 hPa Calm   1.6 km/h 92 % 0 mm
03:56 21.5 °C 20.2 °C 1012.4 hPa Calm   1.6 km/h 92 % 0 mm
04:01 21.4 °C 20.1 °C 1012.8 hPa Calm     92 % 3.05 mm
04:06 21.4 °C 20.1 °C 1012.4 hPa Calm     92 % 3.05 mm
04:11 21.3 °C 20.2 °C 1012.4 hPa Calm   1.9 km/h 93 % 3.05 mm
04:16 21.2 °C 20.1 °C 1012.4 hPa Calm     93 % 2.79 mm
04:21 21.2 °C 20 °C 1012.1 hPa Calm     93 % 3.05 mm
04:26 21.2 °C 20 °C 1012.4 hPa Calm   1.9 km/h 93 % 2.79 mm
04:31 21.1 °C 19.9 °C 1012.1 hPa SW 0.8 km/h 3.7 km/h 93 % 2.29 mm
04:36 21 °C 19.8 °C 1012.1 hPa Calm   3.2 km/h 93 % 1.78 mm
04:41 20.9 °C 19.9 °C 1012.1 hPa SW 0.3 km/h 1.9 km/h 94 % 1.52 mm
04:46 20.8 °C 19.7 °C 1012.1 hPa Calm     93 % 1.27 mm
04:51 20.8 °C 19.6 °C 1012.4 hPa Calm     93 % 1.27 mm
04:56 20.7 °C 19.6 °C 1012.4 hPa Calm     93 % 1.02 mm
05:01 20.7 °C 19.5 °C 1012.4 hPa Calm     93 % 1.27 mm
05:06 20.6 °C 19.4 °C 1012.4 hPa Calm     93 % 1.02 mm
05:11 20.6 °C 19.4 °C 1012.4 hPa SW 0.2 km/h 1.9 km/h 93 % 1.27 mm
05:16 20.4 °C 19.3 °C 1012.1 hPa Calm     93 % 1.27 mm
05:21 20.4 °C 19.4 °C 1012.4 hPa Calm     94 % 1.27 mm
05:26 20.3 °C 19.3 °C 1012.1 hPa Calm     94 % 1.27 mm
05:31 20.3 °C 19.2 °C 1012.1 hPa Calm     93 % 1.27 mm
05:36 20.3 °C 19.3 °C 1012.1 hPa Calm     94 % 1.27 mm
05:41 20.2 °C 19.2 °C 1012.1 hPa Calm   1.9 km/h 94 % 1.27 mm
05:46 20.2 °C 19.2 °C 1012.1 hPa Calm     94 % 1.02 mm
05:51 20.2 °C 19.2 °C 1012.1 hPa Calm     94 % 1.02 mm
05:56 20.2 °C 19.2 °C 1012.1 hPa Calm     94 % 1.02 mm
06:01 20.1 °C 19.1 °C 1012.1 hPa Calm     94 % 0.76 mm
06:06 20.1 °C 19.1 °C 1012.1 hPa Calm     94 % 0.76 mm
06:12 20.1 °C 19.1 °C 1012.1 hPa Calm     94 % 0.51 mm
06:17 20.1 °C 19.1 °C 1012.1 hPa Calm     94 % 0.51 mm
06:22 20.1 °C 19.1 °C 1011.7 hPa Calm     94 % 0.25 mm
06:27 20 °C 19 °C 1011.7 hPa Calm     94 % 0.25 mm
06:32 20 °C 19 °C 1011.7 hPa Calm     94 % 0.25 mm
06:37 20 °C 19 °C 1011.7 hPa Calm     94 % 0.25 mm
06:42 20 °C 19 °C 1011.7 hPa Calm     94 % 0.25 mm
06:47 20 °C 19 °C 1011.7 hPa Calm     94 % 0.25 mm
06:52 20 °C 19 °C 1011.7 hPa Calm     94 % 0 mm
06:57 20 °C 19.2 °C 1011.7 hPa Calm     95 % 0 mm
07:02 20.1 °C 19.2 °C 1011.7 hPa Calm     95 % 0 mm
07:07 20.1 °C 19.2 °C 1011.7 hPa Calm     95 % 0 mm
07:12 20.1 °C 19.2 °C 1011.7 hPa Calm     95 % 0 mm
07:17 20.1 °C 19.3 °C 1011.7 hPa Calm     95 % 0 mm
07:22 20.1 °C 19.3 °C 1011.7 hPa Calm     95 % 0 mm
07:27 20.2 °C 19.3 °C 1011.7 hPa Calm     95 % 0 mm
07:32 20.2 °C 19.4 °C 1012.1 hPa Calm     95 % 0 mm
07:37 20.3 °C 19.4 °C 1011.7 hPa Calm     95 % 0 mm
07:42 20.3 °C 19.5 °C 1012.1 hPa Calm     95 % 0 mm
07:47 20.4 °C 19.6 °C 1012.1 hPa Calm     95 % 0 mm
07:52 20.5 °C 19.8 °C 1011.7 hPa Calm     96 % 0 mm
07:57 20.6 °C 19.9 °C 1011.7 hPa Calm     96 % 0 mm
08:02 20.6 °C 19.9 °C 1012.1 hPa Calm     96 % 0 mm
08:07 20.7 °C 20.1 °C 1012.1 hPa Calm     96 % 0 mm
08:12 20.8 °C 20.2 °C 1011.7 hPa Calm     96 % 0 mm
08:17 20.9 °C 20.3 °C 1011.7 hPa Calm     96 % 0 mm
08:22 21 °C 20.3 °C 1012.1 hPa Calm     96 % 0 mm
08:27 21.1 °C 20.6 °C 1011.7 hPa Calm   1.9 km/h 97 % 0 mm
08:32 21.2 °C 20.5 °C 1011.7 hPa Calm     96 % 0 mm
08:37 21.2 °C 20.6 °C 1011.7 hPa Calm     96 % 0 mm
08:42 21.3 °C 20.8 °C 1012.1 hPa Calm     97 % 0 mm
08:48 21.3 °C 20.7 °C 1012.1 hPa Calm     96 % 0 mm
08:53 21.4 °C 20.7 °C 1012.1 hPa Calm     96 % 0 mm
08:58 21.4 °C 20.7 °C 1012.1 hPa Calm     96 % 0 mm
09:03 21.4 °C 20.8 °C 1012.1 hPa Calm     96 % 0 mm
09:08 21.5 °C 20.8 °C 1012.1 hPa SW 0.2 km/h 1.9 km/h 96 % 0 mm
09:13 21.5 °C 20.7 °C 1012.1 hPa Calm     95 % 0 mm
09:18 21.6 °C 20.9 °C 1012.1 hPa SW 0.2 km/h 3.7 km/h 96 % 0 mm
09:23 21.7 °C 20.8 °C 1012.1 hPa Calm     95 % 0 mm
09:28 21.6 °C 20.4 °C 1012.1 hPa Calm     93 % 0 mm
09:33 21.7 °C 20.5 °C 1012.1 hPa Calm     93 % 0 mm
09:38 21.8 °C 20.6 °C 1012.1 hPa Calm     93 % 0 mm
09:43 21.8 °C 20.5 °C 1012.1 hPa Calm     92 % 0 mm
09:48 21.9 °C 20.6 °C 1011.7 hPa Calm     92 % 0 mm
09:53 21.9 °C 20.6 °C 1012.1 hPa Calm     92 % 0 mm
09:58 22 °C 20.7 °C 1012.1 hPa Calm     92 % 0 mm
10:03 22.1 °C 20.7 °C 1012.1 hPa Calm     92 % 0 mm
10:08 22.2 °C 20.8 °C 1012.1 hPa Calm     92 % 0 mm
10:13 22.2 °C 20.8 °C 1012.1 hPa Calm     92 % 0 mm
10:18 22.3 °C 21.1 °C 1012.1 hPa Calm     93 % 0 mm
10:23 22.3 °C 21.2 °C 1011.7 hPa Calm     93 % 0 mm
10:28 22.4 °C 20.9 °C 1011.7 hPa Calm     91 % 0 mm
10:33 22.4 °C 20.9 °C 1011.7 hPa Calm     91 % 0 mm
10:38 22.6 °C 21 °C 1012.1 hPa East 0.3 km/h 3.7 km/h 91 % 0 mm
10:43 22.6 °C 21.1 °C 1011.7 hPa Calm     91 % 0 mm
10:45 22.7 °C 21.1 °C 1011.7 hPa Calm     91 % 0 mm
10:50 22.7 °C 21 °C 1011.7 hPa Calm     90 % 0 mm
10:55 22.7 °C 20.8 °C 1011.7 hPa Calm     89 % 0 mm
11:00 22.7 °C 20.8 °C 1011.7 hPa Calm     89 % 0 mm
11:05 22.8 °C 20.9 °C 1011.7 hPa Calm     89 % 0 mm
11:10 22.8 °C 20.9 °C 1011.7 hPa Calm     89 % 0 mm
11:15 22.8 °C 21.1 °C 1011.7 hPa Calm     90 % 0 mm
11:20 22.8 °C 21.1 °C 1011.7 hPa Calm     90 % 0 mm
11:25 22.9 °C 21.2 °C 1011.4 hPa Calm     90 % 0 mm
11:30 22.9 °C 21.4 °C 1011.4 hPa Calm     91 % 0 mm
11:35 23.1 °C 21.5 °C 1011.4 hPa Calm     91 % 0 mm
11:40 23.1 °C 21.5 °C 1011.4 hPa Calm     91 % 0 mm
11:45 23.1 °C 21.6 °C 1011.4 hPa Calm     91 % 0 mm
11:50 23.2 °C 21.6 °C 1011.4 hPa Calm     91 % 0 mm
11:55 23.2 °C 21.6 °C 1011.4 hPa East 0.3 km/h 1.9 km/h 91 % 0 mm
12:00 23.3 °C 21.9 °C 1011.4 hPa Calm   1.9 km/h 92 % 0 mm
12:06 23.3 °C 21.9 °C 1011.7 hPa Calm   1.6 km/h 92 % 0 mm
12:11 23.4 °C 22 °C 1011.4 hPa Calm   1.6 km/h 92 % 0 mm
12:16 23.4 °C 21.8 °C 1011.4 hPa Calm   4.8 km/h 91 % 0 mm
12:21 23.4 °C 22.1 °C 1011.4 hPa Calm     92 % 0 mm
12:26 23.5 °C 21.9 °C 1011.4 hPa Calm     91 % 0 mm
12:31 23.6 °C 22 °C 1011.4 hPa Calm   4.8 km/h 91 % 0 mm
12:36 23.6 °C 21.8 °C 1011.1 hPa Calm   4.8 km/h 90 % 0 mm
12:41 23.5 °C 21.6 °C 1011.1 hPa Calm   1.6 km/h 89 % 0 mm
12:45 23.6 °C 21.6 °C 1011.4 hPa Calm     89 % 0 mm
12:50 23.6 °C 21.8 °C 1011.4 hPa SE 0.8 km/h 3.7 km/h 90 % 0 mm
12:55 23.6 °C 21.8 °C 1011.1 hPa Calm   1.9 km/h 90 % 0 mm
13:00 23.6 °C 21.8 °C 1011.4 hPa SE 2.7 km/h 5.6 km/h 90 % 0 mm
13:06 23.6 °C 21.4 °C 1011.4 hPa Calm   9.7 km/h 88 % 0 mm
13:11 23.6 °C 21.6 °C 1011.4 hPa Calm   3.2 km/h 89 % 0 mm
13:16 23.6 °C 21.4 °C 1011.4 hPa SE 3.2 km/h 12.9 km/h 88 % 0 mm
13:21 23.6 °C 21.5 °C 1011.1 hPa Calm   4.8 km/h 88 % 0 mm
13:26 23.6 °C 21.7 °C 1011.1 hPa Calm   3.2 km/h 89 % 0 mm
13:31 23.6 °C 21.7 °C 1011.1 hPa Calm   8 km/h 89 % 0 mm
13:36 23.6 °C 21.7 °C 1011.4 hPa Calm   8 km/h 89 % 0 mm
13:41 23.6 °C 21.4 °C 1011.4 hPa SE 1.6 km/h 4.8 km/h 88 % 0 mm
13:46 23.5 °C 21.6 °C 1011.1 hPa SE 1.6 km/h 4.8 km/h 89 % 0 mm
13:51 23.4 °C 21.5 °C 1011.1 hPa Calm   3.2 km/h 89 % 0 mm
13:56 23.4 °C 21.5 °C 1011.1 hPa Calm   4.8 km/h 89 % 0 mm
14:01 23.4 °C 21.7 °C 1011.1 hPa Calm   1.9 km/h 90 % 0 mm
14:06 23.4 °C 21.7 °C 1010.7 hPa ESE 1.4 km/h 5.6 km/h 90 % 0 mm
14:11 23.4 °C 21.7 °C 1010.7 hPa ESE 0.8 km/h 3.2 km/h 90 % 0 mm
14:16 23.4 °C 21.7 °C 1010.7 hPa SE 0.5 km/h 5.6 km/h 90 % 0.25 mm
14:21 23.4 °C 21.8 °C 1010.7 hPa Calm     91 % 0.25 mm
14:26 23.3 °C 21.8 °C 1010.7 hPa SE 0.5 km/h 5.6 km/h 91 % 0.25 mm
14:31 23.3 °C 21.8 °C 1010.7 hPa SE 0.6 km/h 1.9 km/h 91 % 0.25 mm
14:36 23.3 °C 21.7 °C 1010.7 hPa SE 0.5 km/h 3.2 km/h 91 % 0.25 mm
14:41 23.3 °C 21.7 °C 1011.1 hPa Calm     91 % 0.25 mm
14:46 23.3 °C 21.7 °C 1010.7 hPa Calm   1.9 km/h 91 % 0.25 mm
14:51 23.2 °C 21.7 °C 1010.7 hPa SE 0.5 km/h 3.7 km/h 91 % 0.25 mm
14:56 23.2 °C 21.7 °C 1010.7 hPa Calm     91 % 0.25 mm
15:01 23.3 °C 21.9 °C 1010.7 hPa Calm   1.6 km/h 92 % 0.25 mm
15:06 23.3 °C 21.9 °C 1010.7 hPa Calm     92 % 0.25 mm
15:11 23.3 °C 21.9 °C 1010.7 hPa Calm     92 % 0.25 mm
15:16 23.3 °C 21.9 °C 1010.7 hPa Calm     92 % 0 mm
15:21 23.3 °C 21.7 °C 1010.7 hPa Calm     91 % 0 mm
15:26 23.3 °C 21.7 °C 1010.7 hPa Calm     91 % 0.25 mm
15:31 23.3 °C 21.9 °C 1010.4 hPa Calm     92 % 0.25 mm
15:36 23.3 °C 21.9 °C 1010.4 hPa Calm     92 % 0.25 mm
15:41 23.3 °C 21.9 °C 1010.4 hPa Calm     92 % 0.25 mm
15:46 23.3 °C 21.9 °C 1010.4 hPa Calm   1.9 km/h 92 % 0.51 mm
15:51 23.2 °C 21.6 °C 1010.4 hPa SE 3.1 km/h 6.4 km/h 91 % 0.51 mm
15:56 23.1 °C 21.7 °C 1010.7 hPa Calm     92 % 0.51 mm
16:01 23 °C 21.6 °C 1010.4 hPa SSE 0.2 km/h 3.7 km/h 92 % 0.51 mm
16:02 23 °C 21.6 °C 1010.4 hPa SSE 0.2 km/h 3.7 km/h 92 % 0.51 mm
16:07 22.9 °C 21.6 °C 1010.4 hPa Calm     92 % 0.51 mm
16:11 22.9 °C 21.6 °C 1010.4 hPa Calm     92 % 0.51 mm
16:16 22.9 °C 21.6 °C 1010.4 hPa Calm     92 % 0.51 mm
16:22 22.9 °C 21.8 °C 1010.4 hPa Calm     93 % 0.51 mm
16:27 22.9 °C 21.8 °C 1010.4 hPa Calm     93 % 0.25 mm
16:32 22.9 °C 21.8 °C 1010 hPa Calm     93 % 0.25 mm
16:37 22.9 °C 21.7 °C 1010 hPa Calm     93 % 0.25 mm
16:42 22.9 °C 21.7 °C 1010.4 hPa SSE 0.6 km/h 3.7 km/h 93 % 0 mm
16:47 22.9 °C 21.7 °C 1010 hPa Calm     93 % 0 mm
16:49 22.9 °C 21.7 °C 1010 hPa Calm     93 % 0 mm
16:54 22.9 °C 21.7 °C 1010.4 hPa Calm     93 % 0 mm
16:59 22.8 °C 21.7 °C 1010.4 hPa Calm     93 % 0 mm
17:04 22.8 °C 21.7 °C 1010.4 hPa Calm     93 % 0 mm
17:09 22.8 °C 21.7 °C 1010.4 hPa Calm     93 % 0 mm
17:14 22.8 °C 21.6 °C 1010.4 hPa Calm     93 % 0 mm
17:19 22.8 °C 21.6 °C 1010.4 hPa SE 2.1 km/h 5.6 km/h 93 % 0 mm
17:24 22.8 °C 21.6 °C 1010.4 hPa SE 0.2 km/h 1.6 km/h 93 % 0 mm
17:29 22.8 °C 21.7 °C 1010.4 hPa Calm     93 % 0 mm
17:34 22.9 °C 21.7 °C 1010.4 hPa Calm     93 % 0 mm
17:39 22.8 °C 21.7 °C 1010.4 hPa Calm     93 % 0 mm
17:44 22.8 °C 21.7 °C 1010.4 hPa Calm   1.9 km/h 93 % 0 mm
17:49 22.9 °C 21.5 °C 1010.4 hPa SE 1.8 km/h 4.8 km/h 92 % 0 mm
17:54 22.9 °C 21.5 °C 1010.4 hPa Calm     92 % 0 mm
17:59 22.9 °C 21.5 °C 1010.7 hPa SSE 0.3 km/h   92 % 0 mm
18:04 22.9 °C 21.5 °C 1010.7 hPa Calm     92 % 0 mm
18:09 22.9 °C 21.5 °C 1010.7 hPa SSE 1.4 km/h 4.8 km/h 92 % 0 mm
18:15 22.9 °C 21.5 °C 1010.7 hPa SSE 0.5 km/h 3.7 km/h 92 % 0 mm
18:20 22.8 °C 21.4 °C 1010.7 hPa Calm   3.7 km/h 92 % 0 mm
18:25 22.8 °C 21.4 °C 1010.7 hPa SSE 1.9 km/h 5.6 km/h 92 % 0 mm
18:30 22.8 °C 21.4 °C 1010.7 hPa SE 0.5 km/h 3.7 km/h 92 % 0 mm
18:35 22.7 °C 21.3 °C 1010.7 hPa SE 0.5 km/h 5.6 km/h 92 % 0 mm
18:40 22.7 °C 21.3 °C 1010.7 hPa SE 1.8 km/h 8 km/h 92 % 0 mm
18:45 22.7 °C 21.3 °C 1010.7 hPa Calm     92 % 0 mm
18:50 22.7 °C 21.3 °C 1011.1 hPa Calm     92 % 0 mm
18:55 22.6 °C 21.2 °C 1010.7 hPa Calm     92 % 0 mm
19:00 22.6 °C 21.2 °C 1010.7 hPa SE 0.2 km/h 3.7 km/h 92 % 0 mm
19:05 22.6 °C 21.2 °C 1010.7 hPa Calm     92 % 0 mm
19:10 22.6 °C 21.2 °C 1010.7 hPa SE 0.3 km/h 5.6 km/h 92 % 0 mm
19:15 22.6 °C 21.2 °C 1010.7 hPa Calm     92 % 0 mm
19:20 22.5 °C 21.1 °C 1010.7 hPa Calm     92 % 0 mm
19:25 22.5 °C 21.1 °C 1010.7 hPa SE 0.2 km/h 1.9 km/h 92 % 0 mm
19:30 22.4 °C 21.1 °C 1010.7 hPa Calm     92 % 0 mm
19:35 22.4 °C 21.1 °C 1010.7 hPa SE 0.2 km/h 3.7 km/h 92 % 0 mm
19:40 22.4 °C 21.3 °C 1010.7 hPa SE 3.1 km/h 6.4 km/h 93 % 0 mm
19:45 22.4 °C 21.3 °C 1010.7 hPa Calm   1.9 km/h 93 % 0 mm
19:50 22.4 °C 21.2 °C 1010.7 hPa SE 0.5 km/h 5.6 km/h 93 % 0 mm
19:55 22.3 °C 21.2 °C 1010.7 hPa SE 2.6 km/h 5.6 km/h 93 % 0 mm
20:00 22.3 °C 21.2 °C 1010.7 hPa SE 2.6 km/h 5.6 km/h 93 % 0 mm
20:05 22.3 °C 21.1 °C 1010.7 hPa SE 1 km/h 3.7 km/h 93 % 0 mm
20:10 22.3 °C 21.1 °C 1010.7 hPa SE 1.3 km/h 6.4 km/h 93 % 0 mm
20:15 22.3 °C 21.1 °C 1010.7 hPa Calm   1.9 km/h 93 % 0 mm
20:17 22.2 °C 21.1 °C 1011.1 hPa SE 0.5 km/h 3.7 km/h 93 % 0 mm
20:22 22.2 °C 21.1 °C 1011.1 hPa Calm     93 % 0 mm
20:27 22.2 °C 21.1 °C 1010.7 hPa Calm   1.9 km/h 93 % 0 mm
20:32 22.2 °C 21 °C 1010.7 hPa Calm   1.9 km/h 93 % 0 mm
20:37 22.1 °C 20.9 °C 1010.7 hPa SE 0.2 km/h 3.7 km/h 93 % 0 mm
20:42 22.1 °C 20.9 °C 1010.7 hPa SE 2.3 km/h 5.6 km/h 93 % 0 mm
20:47 22.1 °C 20.9 °C 1011.1 hPa SE 0.5 km/h 3.7 km/h 93 % 0 mm
20:49 22 °C 20.8 °C 1011.1 hPa Calm     93 % 0 mm
20:54 22 °C 21 °C 1011.1 hPa SE 0.5 km/h 1.9 km/h 94 % 0 mm
20:59 21.9 °C 20.9 °C 1011.1 hPa Calm   3.7 km/h 94 % 0 mm
21:04 21.9 °C 20.9 °C 1011.1 hPa Calm   1.9 km/h 94 % 0 mm
21:09 21.9 °C 20.9 °C 1011.1 hPa Calm     94 % 0 mm
21:14 21.8 °C 20.8 °C 1011.1 hPa Calm     94 % 0 mm
21:19 21.8 °C 20.8 °C 1011.1 hPa SE 0.3 km/h 3.7 km/h 94 % 0 mm
21:24 21.8 °C 20.8 °C 1010.7 hPa Calm     94 % 0 mm
21:29 21.8 °C 20.8 °C 1010.7 hPa Calm   1.9 km/h 94 % 0 mm
21:34 21.8 °C 20.8 °C 1011.1 hPa Calm     94 % 0 mm
21:40 21.7 °C 20.7 °C 1011.1 hPa Calm     94 % 0 mm
21:45 21.7 °C 20.7 °C 1011.1 hPa Calm     94 % 0 mm
21:50 21.7 °C 20.7 °C 1011.1 hPa Calm     94 % 0 mm
21:55 21.7 °C 20.7 °C 1011.1 hPa Calm     94 % 0 mm
22:00 21.7 °C 20.7 °C 1011.1 hPa Calm     94 % 0 mm
22:05 21.6 °C 20.6 °C 1011.1 hPa Calm     94 % 0 mm
22:10 21.6 °C 20.6 °C 1011.1 hPa Calm     94 % 0 mm
22:15 21.6 °C 20.6 °C 1011.1 hPa Calm     94 % 0 mm
22:20 21.6 °C 20.6 °C 1011.1 hPa Calm   1.9 km/h 94 % 0 mm
22:25 21.6 °C 20.6 °C 1011.1 hPa Calm     94 % 0 mm
22:30 21.6 °C 20.7 °C 1011.1 hPa Calm     95 % 0 mm
22:35 21.6 °C 20.7 °C 1011.1 hPa Calm     95 % 0 mm
22:40 21.6 °C 20.7 °C 1011.1 hPa Calm     95 % 0 mm
22:45 21.6 °C 20.7 °C 1011.1 hPa Calm     95 % 0 mm
22:50 21.6 °C 20.7 °C 1011.1 hPa Calm     95 % 0 mm
22:55 21.6 °C 20.7 °C 1011.1 hPa Calm     95 % 0 mm
23:00 21.6 °C 20.7 °C 1011.1 hPa Calm     95 % 0 mm
23:05 21.6 °C 20.7 °C 1010.7 hPa Calm     95 % 0 mm
23:10 21.5 °C 20.7 °C 1010.7 hPa Calm     95 % 0 mm
23:17 21.5 °C 20.5 °C 1010.7 hPa Calm     94 % 0 mm
23:22 21.4 °C 20.4 °C 1010.7 hPa Calm     94 % 0 mm
23:27 21.4 °C 20.4 °C 1010.7 hPa Calm     94 % 0 mm
23:30 21.4 °C 20.4 °C 1010.7 hPa Calm     94 % 0 mm
23:35 21.3 °C 20.3 °C 1010.7 hPa Calm     94 % 0 mm
23:40 21.3 °C 20.3 °C 1010.7 hPa Calm     94 % 0 mm
23:45 21.2 °C 20.2 °C 1010.7 hPa Calm     94 % 0 mm
23:50 21.2 °C 20.2 °C 1010.7 hPa Calm     94 % 0 mm
23:55 21.1 °C 20.1 °C 1010.7 hPa Calm     94 % 0 mm
Crab Meadow Weather
Compliments of Weather Underground - 3 mb

Script developed by  Jim McMurry - jmcmurry@mwt.net Adapted for the template by  Wim van der Kuil - Leuven-Template.eu

Extremes: Alaska and Hawaii have the same heat record. In Pahala, Hawaii the temperature on April 27, 1931 was 100 degrees F. Alaska's state heat record is also 100 degrees F. on June 27, 1915 at Fort Yukon.